sensor_id;sensor_type;location;lat;lon;timestamp;P1;durP1;ratioP1;P2;durP2;ratioP2
6983;SDS011;3532;51.118;7.210;2022-08-21T00:01:30;10.70;;;7.60;;
6983;SDS011;3532;51.118;7.210;2022-08-21T00:03:56;9.97;;;8.00;;
6983;SDS011;3532;51.118;7.210;2022-08-21T00:06:22;9.47;;;8.50;;
6983;SDS011;3532;51.118;7.210;2022-08-21T00:08:48;9.33;;;7.47;;
6983;SDS011;3532;51.118;7.210;2022-08-21T00:11:14;8.70;;;7.33;;
6983;SDS011;3532;51.118;7.210;2022-08-21T00:13:40;8.37;;;7.03;;
6983;SDS011;3532;51.118;7.210;2022-08-21T00:16:05;7.70;;;7.00;;
6983;SDS011;3532;51.118;7.210;2022-08-21T00:18:31;9.53;;;7.60;;
6983;SDS011;3532;51.118;7.210;2022-08-21T00:20:56;8.07;;;7.20;;
6983;SDS011;3532;51.118;7.210;2022-08-21T00:23:22;10.37;;;7.50;;
6983;SDS011;3532;51.118;7.210;2022-08-21T00:25:47;10.07;;;8.20;;
6983;SDS011;3532;51.118;7.210;2022-08-21T00:28:13;11.10;;;7.33;;
6983;SDS011;3532;51.118;7.210;2022-08-21T00:30:39;8.67;;;6.67;;
6983;SDS011;3532;51.118;7.210;2022-08-21T00:33:05;7.83;;;7.03;;
6983;SDS011;3532;51.118;7.210;2022-08-21T00:35:32;7.97;;;7.27;;
6983;SDS011;3532;51.118;7.210;2022-08-21T00:38:00;9.40;;;6.73;;
6983;SDS011;3532;51.118;7.210;2022-08-21T00:43:09;9.63;;;7.23;;
6983;SDS011;3532;51.118;7.210;2022-08-21T00:45:36;10.57;;;6.80;;
6983;SDS011;3532;51.118;7.210;2022-08-21T00:48:01;8.73;;;6.90;;
6983;SDS011;3532;51.118;7.210;2022-08-21T00:50:28;8.67;;;6.60;;
6983;SDS011;3532;51.118;7.210;2022-08-21T00:52:57;10.27;;;7.47;;
6983;SDS011;3532;51.118;7.210;2022-08-21T00:55:23;7.67;;;6.63;;
6983;SDS011;3532;51.118;7.210;2022-08-21T00:57:51;7.57;;;6.50;;
6983;SDS011;3532;51.118;7.210;2022-08-21T01:00:19;9.17;;;6.63;;
6983;SDS011;3532;51.118;7.210;2022-08-21T01:02:47;6.87;;;6.17;;
6983;SDS011;3532;51.118;7.210;2022-08-21T01:05:12;8.60;;;6.57;;
6983;SDS011;3532;51.118;7.210;2022-08-21T01:07:38;7.40;;;6.57;;
6983;SDS011;3532;51.118;7.210;2022-08-21T01:10:05;9.53;;;6.40;;
6983;SDS011;3532;51.118;7.210;2022-08-21T01:12:31;6.40;;;5.80;;
6983;SDS011;3532;51.118;7.210;2022-08-21T01:14:57;10.30;;;6.60;;
6983;SDS011;3532;51.118;7.210;2022-08-21T01:17:23;7.30;;;6.60;;
6983;SDS011;3532;51.118;7.210;2022-08-21T01:19:49;8.33;;;6.87;;
6983;SDS011;3532;51.118;7.210;2022-08-21T01:22:14;9.50;;;6.17;;
6983;SDS011;3532;51.118;7.210;2022-08-21T01:24:40;6.97;;;6.30;;
6983;SDS011;3532;51.118;7.210;2022-08-21T01:27:05;13.07;;;6.70;;
6983;SDS011;3532;51.118;7.210;2022-08-21T01:32:12;8.10;;;6.57;;
6983;SDS011;3532;51.118;7.210;2022-08-21T01:34:40;7.97;;;6.00;;
6983;SDS011;3532;51.118;7.210;2022-08-21T01:37:07;7.87;;;7.07;;
6983;SDS011;3532;51.118;7.210;2022-08-21T01:39:32;8.60;;;6.73;;
6983;SDS011;3532;51.118;7.210;2022-08-21T01:41:58;14.10;;;7.50;;
6983;SDS011;3532;51.118;7.210;2022-08-21T01:44:24;9.40;;;7.07;;
6983;SDS011;3532;51.118;7.210;2022-08-21T01:46:50;8.13;;;6.83;;
6983;SDS011;3532;51.118;7.210;2022-08-21T01:49:16;8.20;;;7.30;;
6983;SDS011;3532;51.118;7.210;2022-08-21T01:51:41;8.10;;;6.47;;
6983;SDS011;3532;51.118;7.210;2022-08-21T01:54:07;9.00;;;6.20;;
6983;SDS011;3532;51.118;7.210;2022-08-21T01:56:36;7.87;;;7.03;;
6983;SDS011;3532;51.118;7.210;2022-08-21T01:59:03;11.00;;;7.27;;
6983;SDS011;3532;51.118;7.210;2022-08-21T02:01:28;8.80;;;6.73;;
6983;SDS011;3532;51.118;7.210;2022-08-21T02:03:53;13.17;;;8.03;;
6983;SDS011;3532;51.118;7.210;2022-08-21T02:06:19;9.43;;;7.40;;
6983;SDS011;3532;51.118;7.210;2022-08-21T02:08:45;11.37;;;7.70;;
6983;SDS011;3532;51.118;7.210;2022-08-21T02:11:11;9.20;;;7.60;;
6983;SDS011;3532;51.118;7.210;2022-08-21T02:13:36;8.40;;;6.90;;
6983;SDS011;3532;51.118;7.210;2022-08-21T02:16:02;10.27;;;7.30;;
6983;SDS011;3532;51.118;7.210;2022-08-21T02:18:27;8.10;;;6.53;;
6983;SDS011;3532;51.118;7.210;2022-08-21T02:20:53;8.17;;;6.60;;
6983;SDS011;3532;51.118;7.210;2022-08-21T02:23:18;7.87;;;6.30;;
6983;SDS011;3532;51.118;7.210;2022-08-21T02:25:43;12.50;;;8.50;;
6983;SDS011;3532;51.118;7.210;2022-08-21T02:28:11;7.87;;;6.83;;
6983;SDS011;3532;51.118;7.210;2022-08-21T02:30:40;8.00;;;7.10;;
6983;SDS011;3532;51.118;7.210;2022-08-21T02:33:07;9.00;;;7.87;;
6983;SDS011;3532;51.118;7.210;2022-08-21T02:35:34;8.97;;;7.03;;
6983;SDS011;3532;51.118;7.210;2022-08-21T02:38:02;9.63;;;8.00;;
6983;SDS011;3532;51.118;7.210;2022-08-21T02:40:31;10.03;;;8.07;;
6983;SDS011;3532;51.118;7.210;2022-08-21T02:42:58;9.03;;;8.00;;
6983;SDS011;3532;51.118;7.210;2022-08-21T02:45:24;15.73;;;9.17;;
6983;SDS011;3532;51.118;7.210;2022-08-21T02:47:50;11.10;;;8.40;;
6983;SDS011;3532;51.118;7.210;2022-08-21T02:50:35;10.07;;;8.90;;
6983;SDS011;3532;51.118;7.210;2022-08-21T02:53:02;10.70;;;7.73;;
6983;SDS011;3532;51.118;7.210;2022-08-21T02:55:28;9.63;;;6.80;;
6983;SDS011;3532;51.118;7.210;2022-08-21T02:57:56;11.37;;;8.40;;
6983;SDS011;3532;51.118;7.210;2022-08-21T03:00:22;13.17;;;8.43;;
6983;SDS011;3532;51.118;7.210;2022-08-21T03:02:49;9.63;;;7.87;;
6983;SDS011;3532;51.118;7.210;2022-08-21T03:05:15;10.70;;;8.00;;
6983;SDS011;3532;51.118;7.210;2022-08-21T03:07:41;12.13;;;8.70;;
6983;SDS011;3532;51.118;7.210;2022-08-21T03:10:07;10.73;;;8.90;;
6983;SDS011;3532;51.118;7.210;2022-08-21T03:12:33;11.20;;;7.37;;
6983;SDS011;3532;51.118;7.210;2022-08-21T03:15:00;7.00;;;5.93;;
6983;SDS011;3532;51.118;7.210;2022-08-21T03:17:25;8.20;;;7.20;;
6983;SDS011;3532;51.118;7.210;2022-08-21T03:19:51;9.17;;;6.80;;
6983;SDS011;3532;51.118;7.210;2022-08-21T03:22:17;9.43;;;6.47;;
6983;SDS011;3532;51.118;7.210;2022-08-21T03:24:42;9.33;;;6.47;;
6983;SDS011;3532;51.118;7.210;2022-08-21T03:27:07;11.30;;;7.27;;
6983;SDS011;3532;51.118;7.210;2022-08-21T03:29:33;7.43;;;6.70;;
6983;SDS011;3532;51.118;7.210;2022-08-21T03:31:58;7.37;;;6.63;;
6983;SDS011;3532;51.118;7.210;2022-08-21T03:34:23;8.00;;;6.83;;
6983;SDS011;3532;51.118;7.210;2022-08-21T03:36:49;7.13;;;6.40;;
6983;SDS011;3532;51.118;7.210;2022-08-21T03:39:15;6.37;;;5.77;;
6983;SDS011;3532;51.118;7.210;2022-08-21T03:41:41;8.13;;;6.20;;
6983;SDS011;3532;51.118;7.210;2022-08-21T03:44:06;7.40;;;6.53;;
6983;SDS011;3532;51.118;7.210;2022-08-21T03:46:31;6.23;;;5.50;;
6983;SDS011;3532;51.118;7.210;2022-08-21T03:48:57;10.17;;;7.00;;
6983;SDS011;3532;51.118;7.210;2022-08-21T03:51:22;6.23;;;5.53;;
6983;SDS011;3532;51.118;7.210;2022-08-21T03:53:48;8.57;;;6.17;;
6983;SDS011;3532;51.118;7.210;2022-08-21T03:56:13;7.57;;;6.67;;
6983;SDS011;3532;51.118;7.210;2022-08-21T03:58:38;7.53;;;6.20;;
6983;SDS011;3532;51.118;7.210;2022-08-21T04:01:04;9.77;;;6.20;;
6983;SDS011;3532;51.118;7.210;2022-08-21T04:03:31;7.43;;;6.73;;
6983;SDS011;3532;51.118;7.210;2022-08-21T04:05:57;7.17;;;6.40;;
6983;SDS011;3532;51.118;7.210;2022-08-21T04:08:22;15.07;;;6.63;;
6983;SDS011;3532;51.118;7.210;2022-08-21T04:10:48;8.40;;;6.80;;
6983;SDS011;3532;51.118;7.210;2022-08-21T04:13:15;7.77;;;6.27;;
6983;SDS011;3532;51.118;7.210;2022-08-21T04:15:40;7.97;;;6.50;;
6983;SDS011;3532;51.118;7.210;2022-08-21T04:18:06;7.10;;;6.47;;
6983;SDS011;3532;51.118;7.210;2022-08-21T04:20:33;6.93;;;6.20;;
6983;SDS011;3532;51.118;7.210;2022-08-21T04:22:59;7.40;;;6.47;;
6983;SDS011;3532;51.118;7.210;2022-08-21T04:25:25;8.53;;;6.13;;
6983;SDS011;3532;51.118;7.210;2022-08-21T04:27:51;6.80;;;6.10;;
6983;SDS011;3532;51.118;7.210;2022-08-21T04:30:16;14.00;;;5.87;;
6983;SDS011;3532;51.118;7.210;2022-08-21T04:32:45;6.53;;;5.73;;
6983;SDS011;3532;51.118;7.210;2022-08-21T04:35:13;6.10;;;5.33;;
6983;SDS011;3532;51.118;7.210;2022-08-21T04:37:41;6.63;;;5.80;;
6983;SDS011;3532;51.118;7.210;2022-08-21T04:40:06;8.50;;;6.00;;
6983;SDS011;3532;51.118;7.210;2022-08-21T04:42:39;7.90;;;6.30;;
6983;SDS011;3532;51.118;7.210;2022-08-21T04:45:18;6.83;;;5.57;;
6983;SDS011;3532;51.118;7.210;2022-08-21T04:47:49;6.87;;;6.17;;
6983;SDS011;3532;51.118;7.210;2022-08-21T04:50:15;7.93;;;7.10;;
6983;SDS011;3532;51.118;7.210;2022-08-21T04:52:41;8.00;;;6.50;;
6983;SDS011;3532;51.118;7.210;2022-08-21T04:55:06;8.07;;;6.53;;
6983;SDS011;3532;51.118;7.210;2022-08-21T04:57:32;8.47;;;7.57;;
6983;SDS011;3532;51.118;7.210;2022-08-21T04:59:58;10.27;;;8.17;;
6983;SDS011;3532;51.118;7.210;2022-08-21T05:02:24;6.60;;;6.00;;
6983;SDS011;3532;51.118;7.210;2022-08-21T05:04:50;7.23;;;6.00;;
6983;SDS011;3532;51.118;7.210;2022-08-21T05:07:17;8.17;;;6.37;;
6983;SDS011;3532;51.118;7.210;2022-08-21T05:09:45;7.23;;;6.53;;
6983;SDS011;3532;51.118;7.210;2022-08-21T05:12:11;10.43;;;7.87;;
6983;SDS011;3532;51.118;7.210;2022-08-21T05:14:36;8.73;;;7.30;;
6983;SDS011;3532;51.118;7.210;2022-08-21T05:17:02;8.43;;;7.40;;
6983;SDS011;3532;51.118;7.210;2022-08-21T05:19:27;8.60;;;7.73;;
6983;SDS011;3532;51.118;7.210;2022-08-21T05:21:53;8.20;;;7.40;;
6983;SDS011;3532;51.118;7.210;2022-08-21T05:24:18;12.27;;;8.60;;
6983;SDS011;3532;51.118;7.210;2022-08-21T05:26:44;10.13;;;8.03;;
6983;SDS011;3532;51.118;7.210;2022-08-21T05:29:09;8.50;;;7.57;;
6983;SDS011;3532;51.118;7.210;2022-08-21T05:31:36;7.83;;;7.03;;
6983;SDS011;3532;51.118;7.210;2022-08-21T05:34:01;9.87;;;7.87;;
6983;SDS011;3532;51.118;7.210;2022-08-21T05:36:27;9.27;;;7.40;;
6983;SDS011;3532;51.118;7.210;2022-08-21T05:38:52;9.17;;;8.27;;
6983;SDS011;3532;51.118;7.210;2022-08-21T05:41:17;8.73;;;7.83;;
6983;SDS011;3532;51.118;7.210;2022-08-21T05:43:42;9.30;;;8.40;;
6983;SDS011;3532;51.118;7.210;2022-08-21T05:46:08;14.50;;;10.43;;
6983;SDS011;3532;51.118;7.210;2022-08-21T05:48:34;11.00;;;8.87;;
6983;SDS011;3532;51.118;7.210;2022-08-21T05:51:07;8.90;;;7.90;;
6983;SDS011;3532;51.118;7.210;2022-08-21T05:53:34;9.57;;;7.33;;
6983;SDS011;3532;51.118;7.210;2022-08-21T05:56:00;8.07;;;7.37;;
6983;SDS011;3532;51.118;7.210;2022-08-21T05:58:28;9.40;;;6.67;;
6983;SDS011;3532;51.118;7.210;2022-08-21T06:00:53;7.00;;;6.30;;
6983;SDS011;3532;51.118;7.210;2022-08-21T06:03:20;8.53;;;7.53;;
6983;SDS011;3532;51.118;7.210;2022-08-21T06:05:47;7.73;;;6.93;;
6983;SDS011;3532;51.118;7.210;2022-08-21T06:08:13;10.17;;;7.40;;
6983;SDS011;3532;51.118;7.210;2022-08-21T06:10:39;8.47;;;7.57;;
6983;SDS011;3532;51.118;7.210;2022-08-21T06:13:04;9.60;;;8.67;;
6983;SDS011;3532;51.118;7.210;2022-08-21T06:15:30;8.70;;;7.10;;
6983;SDS011;3532;51.118;7.210;2022-08-21T06:17:55;7.27;;;6.57;;
6983;SDS011;3532;51.118;7.210;2022-08-21T06:20:21;10.90;;;9.80;;
6983;SDS011;3532;51.118;7.210;2022-08-21T06:22:46;8.57;;;7.73;;
6983;SDS011;3532;51.118;7.210;2022-08-21T06:25:12;9.63;;;8.37;;
6983;SDS011;3532;51.118;7.210;2022-08-21T06:27:37;11.43;;;8.90;;
6983;SDS011;3532;51.118;7.210;2022-08-21T06:30:03;11.50;;;10.27;;
6983;SDS011;3532;51.118;7.210;2022-08-21T06:32:30;19.83;;;11.07;;
6983;SDS011;3532;51.118;7.210;2022-08-21T06:34:55;12.20;;;9.13;;
6983;SDS011;3532;51.118;7.210;2022-08-21T06:37:20;13.40;;;10.00;;
6983;SDS011;3532;51.118;7.210;2022-08-21T06:39:46;11.97;;;9.57;;
6983;SDS011;3532;51.118;7.210;2022-08-21T06:42:15;11.90;;;9.47;;
6983;SDS011;3532;51.118;7.210;2022-08-21T06:44:41;12.80;;;10.27;;
6983;SDS011;3532;51.118;7.210;2022-08-21T06:47:07;10.37;;;9.27;;
6983;SDS011;3532;51.118;7.210;2022-08-21T06:49:33;12.80;;;10.07;;
6983;SDS011;3532;51.118;7.210;2022-08-21T06:51:58;12.60;;;9.93;;
6983;SDS011;3532;51.118;7.210;2022-08-21T06:54:23;9.53;;;8.57;;
6983;SDS011;3532;51.118;7.210;2022-08-21T06:56:49;14.20;;;9.83;;
6983;SDS011;3532;51.118;7.210;2022-08-21T06:59:14;10.53;;;9.13;;
6983;SDS011;3532;51.118;7.210;2022-08-21T07:01:40;10.53;;;9.40;;
6983;SDS011;3532;51.118;7.210;2022-08-21T07:04:06;9.73;;;7.93;;
6983;SDS011;3532;51.118;7.210;2022-08-21T07:06:31;9.63;;;7.60;;
6983;SDS011;3532;51.118;7.210;2022-08-21T07:08:56;11.30;;;7.37;;
6983;SDS011;3532;51.118;7.210;2022-08-21T07:11:22;10.33;;;7.60;;
6983;SDS011;3532;51.118;7.210;2022-08-21T07:13:49;13.37;;;8.60;;
6983;SDS011;3532;51.118;7.210;2022-08-21T07:16:16;8.20;;;7.27;;
6983;SDS011;3532;51.118;7.210;2022-08-21T07:18:42;11.83;;;8.17;;
6983;SDS011;3532;51.118;7.210;2022-08-21T07:21:07;9.80;;;8.57;;
6983;SDS011;3532;51.118;7.210;2022-08-21T07:23:36;13.93;;;9.17;;
6983;SDS011;3532;51.118;7.210;2022-08-21T07:26:03;10.10;;;8.57;;
6983;SDS011;3532;51.118;7.210;2022-08-21T07:28:29;14.80;;;8.87;;
6983;SDS011;3532;51.118;7.210;2022-08-21T07:30:56;11.63;;;8.20;;
6983;SDS011;3532;51.118;7.210;2022-08-21T07:33:22;10.20;;;8.43;;
6983;SDS011;3532;51.118;7.210;2022-08-21T07:35:49;11.60;;;8.17;;
6983;SDS011;3532;51.118;7.210;2022-08-21T07:38:14;8.53;;;7.10;;
6983;SDS011;3532;51.118;7.210;2022-08-21T07:40:40;11.33;;;8.03;;
6983;SDS011;3532;51.118;7.210;2022-08-21T07:43:05;10.40;;;8.10;;
6983;SDS011;3532;51.118;7.210;2022-08-21T07:45:30;11.40;;;8.03;;
6983;SDS011;3532;51.118;7.210;2022-08-21T07:47:56;7.63;;;6.90;;
6983;SDS011;3532;51.118;7.210;2022-08-21T07:50:21;11.10;;;7.67;;
6983;SDS011;3532;51.118;7.210;2022-08-21T07:52:47;8.10;;;6.73;;
6983;SDS011;3532;51.118;7.210;2022-08-21T07:55:13;9.93;;;7.53;;
6983;SDS011;3532;51.118;7.210;2022-08-21T07:57:40;11.07;;;7.00;;
6983;SDS011;3532;51.118;7.210;2022-08-21T08:00:06;11.57;;;7.73;;
6983;SDS011;3532;51.118;7.210;2022-08-21T08:02:34;7.97;;;7.10;;
6983;SDS011;3532;51.118;7.210;2022-08-21T08:05:03;9.27;;;7.30;;
6983;SDS011;3532;51.118;7.210;2022-08-21T08:07:30;8.93;;;7.13;;
6983;SDS011;3532;51.118;7.210;2022-08-21T08:09:55;13.60;;;7.37;;
6983;SDS011;3532;51.118;7.210;2022-08-21T08:12:21;11.03;;;6.27;;
6983;SDS011;3532;51.118;7.210;2022-08-21T08:14:46;10.33;;;6.67;;
6983;SDS011;3532;51.118;7.210;2022-08-21T08:17:11;10.33;;;6.23;;
6983;SDS011;3532;51.118;7.210;2022-08-21T08:19:39;7.70;;;6.07;;
6983;SDS011;3532;51.118;7.210;2022-08-21T08:22:14;10.23;;;6.70;;
6983;SDS011;3532;51.118;7.210;2022-08-21T08:24:40;10.17;;;5.93;;
6983;SDS011;3532;51.118;7.210;2022-08-21T08:27:06;8.93;;;6.17;;
6983;SDS011;3532;51.118;7.210;2022-08-21T08:29:31;9.60;;;6.30;;
6983;SDS011;3532;51.118;7.210;2022-08-21T08:31:57;9.00;;;5.57;;
6983;SDS011;3532;51.118;7.210;2022-08-21T08:34:22;7.00;;;5.10;;
6983;SDS011;3532;51.118;7.210;2022-08-21T08:36:48;8.03;;;5.33;;
6983;SDS011;3532;51.118;7.210;2022-08-21T08:39:13;6.80;;;4.17;;
6983;SDS011;3532;51.118;7.210;2022-08-21T08:41:38;12.10;;;5.90;;
6983;SDS011;3532;51.118;7.210;2022-08-21T08:44:04;6.93;;;4.87;;
6983;SDS011;3532;51.118;7.210;2022-08-21T08:46:42;8.00;;;4.30;;
6983;SDS011;3532;51.118;7.210;2022-08-21T08:52:01;5.13;;;3.57;;
6983;SDS011;3532;51.118;7.210;2022-08-21T08:54:36;7.63;;;3.70;;
6983;SDS011;3532;51.118;7.210;2022-08-21T08:57:14;6.20;;;3.93;;
6983;SDS011;3532;51.118;7.210;2022-08-21T08:59:44;7.90;;;4.10;;
6983;SDS011;3532;51.118;7.210;2022-08-21T09:02:15;6.30;;;3.80;;
6983;SDS011;3532;51.118;7.210;2022-08-21T09:04:41;9.43;;;3.87;;
6983;SDS011;3532;51.118;7.210;2022-08-21T09:07:11;7.27;;;3.30;;
6983;SDS011;3532;51.118;7.210;2022-08-21T09:12:17;5.93;;;3.83;;
6983;SDS011;3532;51.118;7.210;2022-08-21T09:14:55;8.07;;;4.13;;
6983;SDS011;3532;51.118;7.210;2022-08-21T09:17:36;10.33;;;4.30;;
6983;SDS011;3532;51.118;7.210;2022-08-21T09:25:55;6.03;;;3.70;;
6983;SDS011;3532;51.118;7.210;2022-08-21T09:28:43;8.57;;;4.00;;
6983;SDS011;3532;51.118;7.210;2022-08-21T09:31:21;8.37;;;4.53;;
6983;SDS011;3532;51.118;7.210;2022-08-21T09:33:50;10.73;;;4.57;;
6983;SDS011;3532;51.118;7.210;2022-08-21T09:36:23;8.13;;;4.20;;
6983;SDS011;3532;51.118;7.210;2022-08-21T09:38:52;6.57;;;4.20;;
6983;SDS011;3532;51.118;7.210;2022-08-21T09:41:25;7.93;;;4.20;;
6983;SDS011;3532;51.118;7.210;2022-08-21T09:43:52;8.70;;;4.67;;
6983;SDS011;3532;51.118;7.210;2022-08-21T09:46:22;8.47;;;4.37;;
6983;SDS011;3532;51.118;7.210;2022-08-21T09:48:50;9.27;;;4.73;;
6983;SDS011;3532;51.118;7.210;2022-08-21T09:51:18;7.13;;;3.90;;
6983;SDS011;3532;51.118;7.210;2022-08-21T09:53:55;8.87;;;4.10;;
6983;SDS011;3532;51.118;7.210;2022-08-21T09:56:27;7.23;;;4.77;;
6983;SDS011;3532;51.118;7.210;2022-08-21T09:59:19;8.83;;;4.03;;
6983;SDS011;3532;51.118;7.210;2022-08-21T10:01:46;10.13;;;4.60;;
6983;SDS011;3532;51.118;7.210;2022-08-21T10:04:14;10.23;;;4.33;;
6983;SDS011;3532;51.118;7.210;2022-08-21T10:06:41;9.37;;;4.20;;
6983;SDS011;3532;51.118;7.210;2022-08-21T10:09:11;8.73;;;4.60;;
6983;SDS011;3532;51.118;7.210;2022-08-21T10:11:40;7.63;;;3.87;;
6983;SDS011;3532;51.118;7.210;2022-08-21T10:14:14;9.80;;;4.60;;
6983;SDS011;3532;51.118;7.210;2022-08-21T10:17:00;7.60;;;3.90;;
6983;SDS011;3532;51.118;7.210;2022-08-21T10:24:58;7.27;;;3.80;;
6983;SDS011;3532;51.118;7.210;2022-08-21T10:27:37;6.53;;;3.67;;
6983;SDS011;3532;51.118;7.210;2022-08-21T10:30:13;7.90;;;3.87;;
6983;SDS011;3532;51.118;7.210;2022-08-21T10:35:23;5.93;;;3.23;;
6983;SDS011;3532;51.118;7.210;2022-08-21T10:40:55;8.27;;;3.47;;
6983;SDS011;3532;51.118;7.210;2022-08-21T10:43:33;5.23;;;2.87;;
6983;SDS011;3532;51.118;7.210;2022-08-21T10:46:12;5.90;;;3.37;;
6983;SDS011;3532;51.118;7.210;2022-08-21T10:48:58;6.47;;;3.27;;
6983;SDS011;3532;51.118;7.210;2022-08-21T10:54:05;6.67;;;3.37;;
6983;SDS011;3532;51.118;7.210;2022-08-21T10:56:57;5.23;;;3.13;;
6983;SDS011;3532;51.118;7.210;2022-08-21T10:59:26;5.57;;;2.83;;
6983;SDS011;3532;51.118;7.210;2022-08-21T11:02:17;6.17;;;2.60;;
6983;SDS011;3532;51.118;7.210;2022-08-21T11:04:55;6.20;;;3.10;;
6983;SDS011;3532;51.118;7.210;2022-08-21T11:07:35;7.83;;;3.40;;
6983;SDS011;3532;51.118;7.210;2022-08-21T11:10:24;3.90;;;2.50;;
6983;SDS011;3532;51.118;7.210;2022-08-21T11:13:00;6.93;;;2.87;;
6983;SDS011;3532;51.118;7.210;2022-08-21T11:15:31;6.93;;;3.20;;
6983;SDS011;3532;51.118;7.210;2022-08-21T11:20:49;5.53;;;3.00;;
6983;SDS011;3532;51.118;7.210;2022-08-21T11:23:22;5.90;;;2.63;;
6983;SDS011;3532;51.118;7.210;2022-08-21T11:25:52;5.33;;;3.27;;
6983;SDS011;3532;51.118;7.210;2022-08-21T11:31:09;4.10;;;2.80;;
6983;SDS011;3532;51.118;7.210;2022-08-21T11:36:15;7.40;;;3.07;;
6983;SDS011;3532;51.118;7.210;2022-08-21T11:38:43;5.43;;;2.50;;
6983;SDS011;3532;51.118;7.210;2022-08-21T11:44:09;5.27;;;2.43;;
6983;SDS011;3532;51.118;7.210;2022-08-21T11:57:17;5.07;;;2.67;;
6983;SDS011;3532;51.118;7.210;2022-08-21T11:59:52;4.90;;;2.43;;
6983;SDS011;3532;51.118;7.210;2022-08-21T12:02:23;5.83;;;3.00;;
6983;SDS011;3532;51.118;7.210;2022-08-21T12:05:00;3.40;;;2.37;;
6983;SDS011;3532;51.118;7.210;2022-08-21T12:07:33;4.97;;;2.70;;
6983;SDS011;3532;51.118;7.210;2022-08-21T12:10:08;2.53;;;2.33;;
6983;SDS011;3532;51.118;7.210;2022-08-21T12:12:37;3.90;;;2.53;;
6983;SDS011;3532;51.118;7.210;2022-08-21T12:17:51;4.17;;;2.23;;
6983;SDS011;3532;51.118;7.210;2022-08-21T12:20:36;4.37;;;2.27;;
6983;SDS011;3532;51.118;7.210;2022-08-21T12:23:16;6.37;;;2.60;;
6983;SDS011;3532;51.118;7.210;2022-08-21T12:25:48;4.50;;;2.37;;
6983;SDS011;3532;51.118;7.210;2022-08-21T12:28:27;6.43;;;2.60;;
6983;SDS011;3532;51.118;7.210;2022-08-21T12:30:53;4.60;;;2.50;;
6983;SDS011;3532;51.118;7.210;2022-08-21T12:33:29;3.50;;;2.37;;
6983;SDS011;3532;51.118;7.210;2022-08-21T12:36:07;2.90;;;2.00;;
6983;SDS011;3532;51.118;7.210;2022-08-21T12:38:43;3.50;;;2.33;;
6983;SDS011;3532;51.118;7.210;2022-08-21T12:41:17;5.57;;;2.37;;
6983;SDS011;3532;51.118;7.210;2022-08-21T12:43:48;5.13;;;2.27;;
6983;SDS011;3532;51.118;7.210;2022-08-21T12:46:17;3.77;;;2.10;;
6983;SDS011;3532;51.118;7.210;2022-08-21T12:48:58;6.77;;;2.53;;
6983;SDS011;3532;51.118;7.210;2022-08-21T12:51:46;3.10;;;2.30;;
6983;SDS011;3532;51.118;7.210;2022-08-21T12:54:27;3.47;;;2.00;;
6983;SDS011;3532;51.118;7.210;2022-08-21T12:57:01;4.30;;;2.40;;
6983;SDS011;3532;51.118;7.210;2022-08-21T12:59:28;2.90;;;2.20;;
6983;SDS011;3532;51.118;7.210;2022-08-21T13:01:54;4.47;;;2.37;;
6983;SDS011;3532;51.118;7.210;2022-08-21T13:04:22;4.57;;;2.17;;
6983;SDS011;3532;51.118;7.210;2022-08-21T13:06:52;4.17;;;2.57;;
6983;SDS011;3532;51.118;7.210;2022-08-21T13:09:21;4.83;;;2.20;;
6983;SDS011;3532;51.118;7.210;2022-08-21T13:11:50;4.40;;;2.60;;
6983;SDS011;3532;51.118;7.210;2022-08-21T13:16:59;3.13;;;2.07;;
6983;SDS011;3532;51.118;7.210;2022-08-21T13:19:25;5.03;;;2.40;;
6983;SDS011;3532;51.118;7.210;2022-08-21T13:21:51;4.67;;;2.20;;
6983;SDS011;3532;51.118;7.210;2022-08-21T13:24:28;4.17;;;2.00;;
6983;SDS011;3532;51.118;7.210;2022-08-21T13:26:54;3.63;;;2.00;;
6983;SDS011;3532;51.118;7.210;2022-08-21T13:29:22;3.80;;;1.90;;
6983;SDS011;3532;51.118;7.210;2022-08-21T13:34:16;3.23;;;2.03;;
6983;SDS011;3532;51.118;7.210;2022-08-21T13:36:43;3.30;;;2.00;;
6983;SDS011;3532;51.118;7.210;2022-08-21T13:39:10;4.00;;;2.00;;
6983;SDS011;3532;51.118;7.210;2022-08-21T13:41:38;2.10;;;1.83;;
6983;SDS011;3532;51.118;7.210;2022-08-21T13:44:14;4.53;;;2.30;;
6983;SDS011;3532;51.118;7.210;2022-08-21T13:46:41;4.63;;;2.13;;
6983;SDS011;3532;51.118;7.210;2022-08-21T13:49:07;4.00;;;2.47;;
6983;SDS011;3532;51.118;7.210;2022-08-21T13:51:34;3.77;;;2.63;;
6983;SDS011;3532;51.118;7.210;2022-08-21T13:54:00;5.00;;;2.60;;
6983;SDS011;3532;51.118;7.210;2022-08-21T13:56:32;4.80;;;2.47;;
6983;SDS011;3532;51.118;7.210;2022-08-21T13:59:07;4.40;;;2.53;;
6983;SDS011;3532;51.118;7.210;2022-08-21T14:01:33;5.17;;;2.30;;
6983;SDS011;3532;51.118;7.210;2022-08-21T14:04:03;3.23;;;2.00;;
6983;SDS011;3532;51.118;7.210;2022-08-21T14:06:35;3.23;;;2.20;;
6983;SDS011;3532;51.118;7.210;2022-08-21T14:09:09;2.77;;;2.13;;
6983;SDS011;3532;51.118;7.210;2022-08-21T14:11:37;2.50;;;2.07;;
6983;SDS011;3532;51.118;7.210;2022-08-21T14:14:05;3.47;;;2.00;;
6983;SDS011;3532;51.118;7.210;2022-08-21T14:16:55;4.70;;;2.17;;
6983;SDS011;3532;51.118;7.210;2022-08-21T14:19:28;5.67;;;2.03;;
6983;SDS011;3532;51.118;7.210;2022-08-21T14:25:13;6.10;;;2.20;;
6983;SDS011;3532;51.118;7.210;2022-08-21T14:27:54;3.27;;;1.93;;
6983;SDS011;3532;51.118;7.210;2022-08-21T14:30:43;3.43;;;1.90;;
6983;SDS011;3532;51.118;7.210;2022-08-21T14:33:10;4.50;;;2.23;;
6983;SDS011;3532;51.118;7.210;2022-08-21T14:35:37;2.73;;;1.60;;
6983;SDS011;3532;51.118;7.210;2022-08-21T14:38:10;3.60;;;2.00;;
6983;SDS011;3532;51.118;7.210;2022-08-21T14:40:39;4.67;;;2.07;;
6983;SDS011;3532;51.118;7.210;2022-08-21T14:43:12;4.37;;;1.90;;
6983;SDS011;3532;51.118;7.210;2022-08-21T14:45:37;3.17;;;2.03;;
6983;SDS011;3532;51.118;7.210;2022-08-21T14:48:05;3.37;;;2.20;;
6983;SDS011;3532;51.118;7.210;2022-08-21T14:50:30;2.23;;;2.00;;
6983;SDS011;3532;51.118;7.210;2022-08-21T14:52:56;3.17;;;2.07;;
6983;SDS011;3532;51.118;7.210;2022-08-21T14:55:21;3.50;;;1.90;;
6983;SDS011;3532;51.118;7.210;2022-08-21T14:57:50;5.00;;;2.00;;
6983;SDS011;3532;51.118;7.210;2022-08-21T15:00:17;3.17;;;1.60;;
6983;SDS011;3532;51.118;7.210;2022-08-21T15:02:45;2.87;;;1.97;;
6983;SDS011;3532;51.118;7.210;2022-08-21T15:05:11;3.43;;;2.00;;
6983;SDS011;3532;51.118;7.210;2022-08-21T15:07:37;6.53;;;2.23;;
6983;SDS011;3532;51.118;7.210;2022-08-21T15:10:03;2.83;;;1.83;;
6983;SDS011;3532;51.118;7.210;2022-08-21T15:12:29;3.20;;;2.20;;
6983;SDS011;3532;51.118;7.210;2022-08-21T15:14:54;3.80;;;2.27;;
6983;SDS011;3532;51.118;7.210;2022-08-21T15:17:20;2.00;;;1.80;;
6983;SDS011;3532;51.118;7.210;2022-08-21T15:19:45;4.03;;;1.93;;
6983;SDS011;3532;51.118;7.210;2022-08-21T15:22:10;2.63;;;1.70;;
6983;SDS011;3532;51.118;7.210;2022-08-21T15:24:36;3.60;;;1.90;;
6983;SDS011;3532;51.118;7.210;2022-08-21T15:27:01;2.93;;;1.80;;
6983;SDS011;3532;51.118;7.210;2022-08-21T15:29:28;2.80;;;2.00;;
6983;SDS011;3532;51.118;7.210;2022-08-21T15:31:56;3.83;;;1.80;;
6983;SDS011;3532;51.118;7.210;2022-08-21T15:34:24;2.40;;;1.87;;
6983;SDS011;3532;51.118;7.210;2022-08-21T15:36:50;3.03;;;1.93;;
6983;SDS011;3532;51.118;7.210;2022-08-21T15:39:15;3.73;;;2.20;;
6983;SDS011;3532;51.118;7.210;2022-08-21T15:41:41;2.57;;;1.87;;
6983;SDS011;3532;51.118;7.210;2022-08-21T15:44:08;2.20;;;1.60;;
6983;SDS011;3532;51.118;7.210;2022-08-21T15:46:34;3.80;;;2.20;;
6983;SDS011;3532;51.118;7.210;2022-08-21T15:48:59;2.73;;;1.53;;
6983;SDS011;3532;51.118;7.210;2022-08-21T15:51:25;2.63;;;1.80;;
6983;SDS011;3532;51.118;7.210;2022-08-21T15:53:50;3.23;;;1.80;;
6983;SDS011;3532;51.118;7.210;2022-08-21T15:56:23;2.30;;;1.83;;
6983;SDS011;3532;51.118;7.210;2022-08-21T15:58:50;1.70;;;1.50;;
6983;SDS011;3532;51.118;7.210;2022-08-21T16:01:18;2.87;;;1.70;;
6983;SDS011;3532;51.118;7.210;2022-08-21T16:03:46;2.50;;;1.80;;
6983;SDS011;3532;51.118;7.210;2022-08-21T16:06:13;3.13;;;1.60;;
6983;SDS011;3532;51.118;7.210;2022-08-21T16:08:39;3.03;;;1.70;;
6983;SDS011;3532;51.118;7.210;2022-08-21T16:11:04;2.83;;;2.20;;
6983;SDS011;3532;51.118;7.210;2022-08-21T16:13:32;3.33;;;2.13;;
6983;SDS011;3532;51.118;7.210;2022-08-21T16:16:00;3.00;;;1.77;;
6983;SDS011;3532;51.118;7.210;2022-08-21T16:18:25;4.87;;;2.00;;
6983;SDS011;3532;51.118;7.210;2022-08-21T16:20:51;3.60;;;2.10;;
6983;SDS011;3532;51.118;7.210;2022-08-21T16:23:16;2.83;;;2.03;;